createdAt,value
2023-05-02T00:01:32.407Z,11.90
2023-05-02T00:04:00.283Z,11.80
2023-05-02T00:06:28.295Z,11.70
2023-05-02T00:08:58.135Z,11.60
2023-05-02T00:11:26.842Z,11.60
2023-05-02T00:13:54.785Z,11.50
2023-05-02T00:16:24.619Z,11.40
2023-05-02T00:18:52.649Z,11.40
2023-05-02T00:21:21.111Z,11.40
2023-05-02T00:23:48.892Z,11.30
2023-05-02T00:26:16.753Z,11.20
2023-05-02T00:28:44.678Z,11.20
2023-05-02T00:31:12.467Z,11.10
2023-05-02T00:33:42.805Z,11.10
2023-05-02T00:36:15.210Z,11.00
2023-05-02T00:38:43.212Z,10.90
2023-05-02T00:41:11.213Z,10.90
2023-05-02T00:43:42.447Z,10.90
2023-05-02T00:46:12.199Z,10.80
2023-05-02T00:48:42.632Z,10.80
2023-05-02T00:51:12.827Z,10.80
2023-05-02T00:53:41.483Z,10.80
2023-05-02T00:56:10.038Z,10.70
2023-05-02T00:58:38.874Z,10.70
2023-05-02T01:01:17.939Z,10.60
2023-05-02T01:04:03.722Z,10.60
2023-05-02T01:06:40.773Z,10.60
2023-05-02T01:09:25.829Z,10.50
2023-05-02T01:12:03.421Z,10.60
2023-05-02T01:14:34.492Z,10.60
2023-05-02T01:17:07.468Z,10.60
2023-05-02T01:19:39.330Z,10.60
2023-05-02T01:22:11.490Z,10.60
2023-05-02T01:24:48.085Z,10.60
2023-05-02T01:27:26.119Z,10.60
2023-05-02T01:29:58.385Z,10.60
2023-05-02T01:32:30.977Z,10.60
2023-05-02T01:35:01.479Z,10.60
2023-05-02T01:37:30.473Z,10.60
2023-05-02T01:40:01.368Z,10.70
2023-05-02T01:42:31.371Z,10.70
2023-05-02T01:45:03.215Z,10.80
2023-05-02T01:47:33.426Z,10.90
2023-05-02T01:50:03.057Z,10.90
2023-05-02T01:52:31.331Z,11.00
2023-05-02T01:55:01.807Z,11.10
2023-05-02T01:57:30.552Z,11.10
2023-05-02T02:00:02.027Z,11.10
2023-05-02T02:02:31.703Z,11.20
2023-05-02T02:05:01.621Z,11.10
2023-05-02T02:07:29.425Z,11.10
2023-05-02T02:09:57.780Z,11.10
2023-05-02T02:12:31.931Z,11.10
2023-05-02T02:15:08.057Z,11.10
2023-05-02T02:17:39.814Z,11.10
2023-05-02T02:20:12.421Z,11.10
2023-05-02T02:22:42.134Z,11.00
2023-05-02T02:25:14.333Z,11.00
2023-05-02T02:27:42.534Z,11.10
2023-05-02T02:30:12.989Z,11.00
2023-05-02T02:32:40.812Z,11.10
2023-05-02T02:35:10.162Z,11.10
2023-05-02T02:37:45.254Z,11.10
2023-05-02T02:40:20.557Z,11.10
2023-05-02T02:42:56.067Z,11.00
2023-05-02T02:45:34.995Z,11.00
2023-05-02T02:48:21.052Z,11.00
2023-05-02T02:51:09.837Z,11.00
2023-05-02T02:53:50.128Z,11.00
2023-05-02T02:56:28.842Z,11.10
2023-05-02T02:59:01.414Z,11.00
2023-05-02T03:01:33.570Z,11.00
2023-05-02T03:04:04.461Z,11.00
2023-05-02T03:06:32.658Z,11.00
2023-05-02T03:09:00.629Z,10.90
2023-05-02T03:11:29.592Z,10.90
2023-05-02T03:13:58.461Z,10.90
2023-05-02T03:16:36.670Z,10.90
2023-05-02T03:19:07.494Z,10.90
2023-05-02T03:21:36.239Z,10.90
2023-05-02T03:24:05.423Z,10.90
2023-05-02T03:26:33.648Z,10.90
2023-05-02T03:29:01.459Z,10.90
2023-05-02T03:31:30.130Z,10.90
2023-05-02T03:33:59.134Z,10.90
2023-05-02T03:36:28.679Z,10.90
2023-05-02T03:38:56.375Z,10.90
2023-05-02T03:41:26.459Z,10.90
2023-05-02T03:43:54.315Z,10.90
2023-05-02T03:46:23.120Z,10.90
2023-05-02T03:48:52.964Z,10.90
2023-05-02T03:51:23.975Z,10.80
2023-05-02T03:53:52.045Z,10.80
2023-05-02T03:56:24.317Z,10.80
2023-05-02T03:58:52.628Z,10.80
2023-05-02T04:01:21.230Z,10.90
2023-05-02T04:03:49.281Z,10.80
2023-05-02T04:06:18.423Z,10.90
2023-05-02T04:08:47.555Z,10.90
2023-05-02T04:11:15.965Z,10.90
2023-05-02T04:13:43.695Z,11.00
2023-05-02T04:16:12.253Z,11.00
2023-05-02T04:18:40.312Z,11.00
2023-05-02T04:21:10.167Z,10.90
2023-05-02T04:23:40.000Z,11.00
2023-05-02T04:26:11.921Z,11.00
2023-05-02T04:28:41.284Z,11.00
2023-05-02T04:31:09.780Z,11.10
2023-05-02T04:33:37.621Z,11.10
2023-05-02T04:36:06.615Z,11.10
2023-05-02T04:38:34.766Z,11.00
2023-05-02T04:41:08.807Z,11.00
2023-05-02T04:43:38.593Z,11.00
2023-05-02T04:46:06.320Z,11.10
2023-05-02T04:48:34.652Z,11.10
2023-05-02T04:51:02.660Z,11.10
2023-05-02T04:53:30.375Z,11.10
2023-05-02T04:55:58.869Z,11.20
2023-05-02T04:58:27.893Z,11.20
2023-05-02T05:00:57.366Z,11.30
2023-05-02T05:03:25.944Z,11.30
2023-05-02T05:05:53.910Z,11.30
2023-05-02T05:08:22.294Z,11.30
2023-05-02T05:10:50.452Z,11.20
2023-05-02T05:13:18.499Z,11.30
2023-05-02T05:15:47.396Z,11.40
2023-05-02T05:18:16.650Z,11.40
2023-05-02T05:20:45.008Z,11.40
2023-05-02T05:23:12.700Z,11.50
2023-05-02T05:25:45.756Z,11.60
2023-05-02T05:28:13.867Z,11.60
2023-05-02T05:30:41.772Z,11.60
2023-05-02T05:33:09.460Z,11.50
2023-05-02T05:35:41.021Z,11.50
2023-05-02T05:38:08.929Z,11.60
2023-05-02T05:40:36.857Z,11.60
2023-05-02T05:43:05.248Z,11.60
2023-05-02T05:45:33.707Z,11.50
2023-05-02T05:48:02.626Z,11.60
2023-05-02T05:50:30.776Z,11.60
2023-05-02T05:52:59.832Z,11.70
2023-05-02T05:55:28.935Z,11.90
2023-05-02T05:57:56.742Z,11.80
2023-05-02T06:00:27.357Z,11.80
2023-05-02T06:02:56.614Z,11.70
2023-05-02T06:05:25.811Z,11.60
2023-05-02T06:07:53.565Z,11.60
2023-05-02T06:10:26.039Z,11.50
2023-05-02T06:12:54.041Z,11.50
2023-05-02T06:15:22.846Z,11.40
2023-05-02T06:17:53.543Z,11.50
2023-05-02T06:20:23.390Z,11.40
2023-05-02T06:22:52.398Z,11.50
2023-05-02T06:25:20.334Z,11.50
2023-05-02T06:27:49.497Z,11.60
2023-05-02T06:30:17.849Z,11.80
2023-05-02T06:32:48.178Z,12.00
2023-05-02T06:35:17.041Z,12.00
2023-05-02T06:37:44.803Z,12.00
2023-05-02T06:40:13.879Z,12.00
2023-05-02T06:42:41.638Z,12.00
2023-05-02T06:45:13.975Z,12.00
2023-05-02T06:47:42.016Z,12.00
2023-05-02T06:50:43.887Z,12.00
2023-05-02T06:53:12.008Z,12.00
2023-05-02T06:55:40.107Z,11.90
2023-05-02T06:58:08.443Z,11.90
2023-05-02T07:00:37.628Z,12.00
2023-05-02T07:03:06.012Z,12.10
2023-05-02T07:05:34.262Z,12.20
2023-05-02T07:08:02.512Z,12.20
2023-05-02T07:10:31.079Z,12.10
2023-05-02T07:13:01.341Z,12.00
2023-05-02T07:15:30.855Z,12.00
2023-05-02T07:18:00.829Z,12.10
2023-05-02T07:20:41.967Z,12.30
2023-05-02T07:23:10.647Z,12.20
2023-05-02T07:25:40.015Z,12.20
2023-05-02T07:28:08.304Z,12.00
2023-05-02T07:30:36.762Z,12.20
2023-05-02T07:33:06.728Z,12.30
2023-05-02T07:35:35.286Z,12.30
2023-05-02T07:38:05.368Z,12.50
2023-05-02T07:40:33.925Z,12.50
2023-05-02T07:43:02.277Z,12.20
2023-05-02T07:45:31.156Z,12.40
2023-05-02T07:47:58.988Z,12.30
2023-05-02T07:50:28.884Z,12.30
2023-05-02T07:52:58.809Z,12.30
2023-05-02T07:55:30.925Z,12.30
2023-05-02T08:00:57.980Z,12.40
2023-05-02T08:03:26.868Z,12.40
2023-05-02T08:05:56.326Z,12.30
2023-05-02T08:08:25.729Z,12.10
2023-05-02T08:10:53.539Z,11.80
2023-05-02T08:13:24.125Z,11.60
2023-05-02T08:15:51.897Z,10.90
2023-05-02T08:18:21.011Z,10.50
2023-05-02T08:20:50.675Z,10.40
2023-05-02T08:23:20.000Z,10.40
2023-05-02T08:25:50.169Z,10.30
2023-05-02T08:28:19.170Z,10.20
2023-05-02T08:30:47.177Z,10.30
2023-05-02T08:33:15.410Z,10.40
2023-05-02T08:35:44.727Z,10.50
2023-05-02T08:38:14.339Z,10.60
2023-05-02T08:40:44.499Z,10.60
2023-05-02T08:43:12.983Z,10.70
2023-05-02T08:45:43.260Z,10.90
2023-05-02T08:48:12.668Z,10.90
2023-05-02T08:50:41.921Z,11.10
2023-05-02T08:53:13.832Z,11.40
2023-05-02T08:55:44.171Z,11.50
2023-05-02T08:58:16.197Z,11.60
2023-05-02T09:00:48.568Z,11.60
2023-05-02T09:03:24.913Z,11.70
2023-05-02T09:05:58.264Z,11.60
2023-05-02T09:08:26.493Z,11.70
2023-05-02T09:10:57.042Z,12.00
2023-05-02T09:13:40.199Z,12.00
2023-05-02T09:16:12.196Z,12.20
2023-05-02T09:18:45.881Z,12.40
2023-05-02T09:24:02.362Z,12.50
2023-05-02T09:26:33.486Z,12.40
2023-05-02T09:29:07.056Z,12.40
2023-05-02T09:34:11.266Z,12.40
2023-05-02T09:36:43.473Z,12.50
2023-05-02T09:39:25.860Z,12.70
2023-05-02T09:41:55.817Z,12.90
2023-05-02T09:44:32.806Z,13.10
2023-05-02T09:47:03.028Z,12.80
2023-05-02T09:49:45.934Z,12.80
2023-05-02T09:52:16.455Z,12.60
2023-05-02T09:54:47.260Z,12.60
2023-05-02T09:57:16.985Z,12.90
2023-05-02T09:59:55.726Z,12.80
2023-05-02T10:02:28.188Z,12.80
2023-05-02T10:05:02.576Z,12.90
2023-05-02T10:07:31.762Z,13.10
2023-05-02T10:10:02.383Z,13.20
2023-05-02T10:12:33.982Z,13.60
2023-05-02T10:15:07.083Z,14.00
2023-05-02T10:17:42.637Z,14.00
2023-05-02T10:20:17.087Z,14.50
2023-05-02T10:22:46.874Z,14.80
2023-05-02T10:25:16.379Z,14.70
2023-05-02T10:27:50.670Z,14.30
2023-05-02T10:30:21.428Z,13.80
2023-05-02T10:32:54.791Z,13.90
2023-05-02T10:35:29.802Z,14.00
2023-05-02T10:38:08.560Z,13.70
2023-05-02T10:40:44.410Z,13.70
2023-05-02T10:43:17.610Z,14.10
2023-05-02T10:45:50.940Z,14.40
2023-05-02T10:48:20.498Z,14.80
2023-05-02T10:50:51.443Z,14.80
2023-05-02T10:53:30.985Z,14.50
2023-05-02T10:56:29.172Z,14.40
2023-05-02T10:59:31.485Z,14.80
2023-05-02T11:02:01.199Z,15.30
2023-05-02T11:05:13.542Z,15.00
2023-05-02T11:07:42.057Z,15.10
2023-05-02T11:10:31.586Z,15.40
2023-05-02T11:13:07.157Z,15.60
2023-05-02T11:16:03.011Z,16.20
2023-05-02T11:19:04.545Z,16.20
2023-05-02T11:21:41.446Z,16.40
2023-05-02T11:24:41.966Z,15.90
2023-05-02T11:27:38.993Z,15.90
2023-05-02T11:30:14.054Z,15.80
2023-05-02T11:33:26.444Z,15.90
2023-05-02T11:35:56.890Z,15.60
2023-05-02T11:38:26.720Z,13.60
2023-05-02T11:40:58.201Z,13.30
2023-05-02T11:43:30.711Z,12.90
2023-05-02T11:46:02.599Z,12.60
2023-05-02T11:48:32.781Z,12.50
2023-05-02T11:51:05.729Z,12.60
2023-05-02T11:53:42.123Z,12.40
2023-05-02T11:56:11.836Z,12.60
2023-05-02T11:58:44.418Z,12.70
2023-05-02T12:01:15.084Z,12.20
2023-05-02T12:03:45.720Z,11.90
2023-05-02T12:06:18.408Z,11.70
2023-05-02T12:08:46.719Z,11.60
2023-05-02T12:11:15.512Z,11.50
2023-05-02T12:13:49.080Z,11.30
2023-05-02T12:16:19.498Z,11.20
2023-05-02T12:18:57.097Z,11.20
2023-05-02T12:21:26.734Z,11.10
2023-05-02T12:23:55.140Z,11.20
2023-05-02T12:26:27.518Z,11.30
2023-05-02T12:28:59.896Z,11.40
2023-05-02T12:31:31.500Z,11.40
2023-05-02T12:34:01.864Z,11.40
2023-05-02T12:36:30.427Z,11.50
2023-05-02T12:39:02.189Z,11.40
2023-05-02T12:41:38.280Z,11.40
2023-05-02T12:44:07.708Z,11.40
2023-05-02T12:46:36.411Z,11.30
2023-05-02T12:49:08.261Z,11.40
2023-05-02T12:51:36.475Z,11.50
2023-05-02T12:54:04.848Z,11.50
2023-05-02T12:56:39.960Z,11.60
2023-05-02T12:59:11.623Z,11.60
2023-05-02T13:01:39.537Z,11.70
2023-05-02T13:04:08.789Z,11.70
2023-05-02T13:06:39.852Z,11.70
2023-05-02T13:09:09.132Z,11.70
2023-05-02T13:11:39.302Z,11.70
2023-05-02T13:14:09.695Z,11.70
2023-05-02T13:16:37.917Z,11.80
2023-05-02T13:19:08.513Z,11.70
2023-05-02T13:21:36.352Z,11.70
2023-05-02T13:24:05.010Z,11.80
2023-05-02T13:26:34.530Z,11.70
2023-05-02T13:29:14.582Z,11.50
2023-05-02T13:31:42.794Z,11.50
2023-05-02T13:34:13.311Z,11.40
2023-05-02T13:36:46.592Z,11.40
2023-05-02T13:39:14.996Z,11.50
2023-05-02T13:41:45.313Z,11.50
2023-05-02T13:44:13.404Z,11.60
2023-05-02T13:46:41.490Z,11.50
2023-05-02T13:49:11.592Z,11.40
2023-05-02T13:51:40.943Z,11.40
2023-05-02T13:54:08.753Z,11.40
2023-05-02T13:56:37.211Z,11.40
2023-05-02T13:59:07.709Z,11.60
2023-05-02T14:01:36.367Z,11.50
2023-05-02T14:04:08.827Z,11.40
2023-05-02T14:06:39.458Z,11.50
2023-05-02T14:09:09.548Z,11.60
2023-05-02T14:11:38.816Z,11.70
2023-05-02T14:14:10.323Z,11.70
2023-05-02T14:16:40.923Z,11.70
2023-05-02T14:19:09.149Z,11.80
2023-05-02T14:21:39.620Z,11.80
2023-05-02T14:24:09.016Z,12.00
2023-05-02T14:26:36.756Z,12.10
2023-05-02T14:29:10.960Z,12.10
2023-05-02T14:31:41.272Z,12.30
2023-05-02T14:34:09.693Z,12.50
2023-05-02T14:39:37.769Z,12.90
2023-05-02T14:42:08.108Z,13.10
2023-05-02T14:44:39.148Z,13.60
2023-05-02T14:47:15.089Z,14.20
2023-05-02T14:49:43.237Z,13.70
2023-05-02T14:52:11.112Z,13.30
2023-05-02T14:54:41.775Z,13.30
2023-05-02T14:57:10.295Z,13.00
2023-05-02T14:59:41.252Z,13.10
2023-05-02T15:02:09.302Z,12.90
2023-05-02T15:04:38.354Z,12.80
2023-05-02T15:07:06.910Z,12.70
2023-05-02T15:09:35.133Z,12.50
2023-05-02T15:12:04.620Z,12.30
2023-05-02T15:14:32.428Z,12.30
2023-05-02T15:17:04.744Z,12.30
2023-05-02T15:19:32.786Z,12.30
2023-05-02T15:22:03.174Z,12.20
2023-05-02T15:24:31.610Z,12.20
2023-05-02T15:27:03.908Z,12.10
2023-05-02T15:29:34.017Z,12.10
2023-05-02T15:32:01.994Z,12.30
2023-05-02T15:34:29.934Z,12.40
2023-05-02T15:37:02.031Z,12.50
2023-05-02T15:39:30.113Z,12.10
2023-05-02T15:41:58.385Z,12.10
2023-05-02T15:44:26.691Z,12.30
2023-05-02T15:46:57.108Z,12.20
2023-05-02T15:49:34.698Z,12.10
2023-05-02T15:52:04.433Z,12.10
2023-05-02T15:54:33.275Z,12.00
2023-05-02T15:57:02.992Z,12.00
2023-05-02T15:59:33.885Z,12.10
2023-05-02T16:02:03.788Z,12.10
2023-05-02T16:04:32.225Z,12.10
2023-05-02T16:07:00.710Z,12.00
2023-05-02T16:09:34.020Z,12.20
2023-05-02T16:12:04.141Z,12.10
2023-05-02T16:14:32.423Z,12.10
2023-05-02T16:17:01.108Z,12.10
2023-05-02T16:19:31.436Z,12.00
2023-05-02T16:21:59.681Z,11.80
2023-05-02T16:24:27.892Z,11.80
2023-05-02T16:26:58.680Z,11.60
2023-05-02T16:29:30.669Z,11.50
2023-05-02T16:31:59.485Z,11.50
2023-05-02T16:34:28.699Z,11.40
2023-05-02T16:37:01.765Z,11.50
2023-05-02T16:39:42.944Z,11.40
2023-05-02T16:42:10.712Z,11.50
2023-05-02T16:44:39.926Z,11.40
2023-05-02T16:47:09.177Z,11.40
2023-05-02T16:49:37.032Z,11.40
2023-05-02T16:52:18.200Z,11.40
2023-05-02T16:54:46.077Z,11.30
2023-05-02T16:57:26.382Z,11.40
2023-05-02T16:59:59.838Z,11.30
2023-05-02T17:02:28.154Z,11.20
2023-05-02T17:05:06.363Z,11.10
2023-05-02T17:07:35.979Z,11.10
2023-05-02T17:10:05.963Z,11.00
2023-05-02T17:12:34.968Z,10.90
2023-05-02T17:15:04.551Z,10.90
2023-05-02T17:17:33.096Z,10.80
2023-05-02T17:20:01.306Z,10.90
2023-05-02T17:22:30.830Z,10.90
2023-05-02T17:25:06.258Z,10.90
2023-05-02T17:27:34.167Z,10.90
2023-05-02T17:30:04.275Z,10.90
2023-05-02T17:32:35.077Z,10.90
2023-05-02T17:35:07.238Z,10.90
2023-05-02T17:37:36.577Z,10.80
2023-05-02T17:40:08.072Z,10.80
2023-05-02T17:42:37.073Z,10.70
2023-05-02T17:45:08.196Z,10.80
2023-05-02T17:47:37.124Z,10.70
2023-05-02T17:50:05.868Z,10.60
2023-05-02T17:52:34.480Z,10.60
2023-05-02T17:55:07.126Z,10.70
2023-05-02T17:57:41.752Z,10.70
2023-05-02T18:00:13.466Z,10.60
2023-05-02T18:02:44.292Z,10.60
2023-05-02T18:05:12.450Z,10.60
2023-05-02T18:07:45.372Z,10.60
2023-05-02T18:10:14.134Z,10.60
2023-05-02T18:12:43.727Z,10.60
2023-05-02T18:15:11.661Z,10.60
2023-05-02T18:17:39.637Z,10.60
2023-05-02T18:20:10.012Z,10.60
2023-05-02T18:22:39.123Z,10.60
2023-05-02T18:25:08.236Z,10.70
2023-05-02T18:27:36.100Z,10.60
2023-05-02T18:30:06.388Z,10.50
2023-05-02T18:32:35.765Z,10.60
2023-05-02T18:35:04.722Z,10.60
2023-05-02T18:37:33.779Z,10.50
2023-05-02T18:40:03.280Z,10.50
2023-05-02T18:42:30.984Z,10.50
2023-05-02T18:44:58.673Z,10.40
2023-05-02T18:47:28.087Z,10.40
2023-05-02T18:49:59.392Z,10.40
2023-05-02T18:52:28.109Z,10.30
2023-05-02T18:54:56.207Z,10.40
2023-05-02T18:57:24.406Z,10.30
2023-05-02T19:00:06.280Z,10.30
2023-05-02T19:02:38.370Z,10.30
2023-05-02T19:05:14.014Z,10.20
2023-05-02T19:07:42.264Z,10.20
2023-05-02T19:10:11.453Z,10.10
2023-05-02T19:12:40.783Z,10.00
2023-05-02T19:15:12.499Z,9.90
2023-05-02T19:17:43.512Z,9.80
2023-05-02T19:20:15.063Z,9.80
2023-05-02T19:23:18.301Z,9.70
2023-05-02T19:25:50.929Z,9.60
2023-05-02T19:28:20.944Z,9.60
2023-05-02T19:30:49.122Z,9.50
2023-05-02T19:33:25.397Z,9.50
2023-05-02T19:35:58.421Z,9.40
2023-05-02T19:38:26.111Z,9.30
2023-05-02T19:40:55.896Z,9.20
2023-05-02T19:43:24.439Z,9.20
2023-05-02T19:45:52.828Z,9.20
2023-05-02T19:48:28.449Z,9.10
2023-05-02T19:50:58.551Z,9.10
2023-05-02T19:53:28.106Z,9.00
2023-05-02T19:55:56.520Z,9.00
2023-05-02T19:58:24.308Z,8.90
2023-05-02T20:00:53.880Z,9.00
2023-05-02T20:03:27.596Z,8.90
2023-05-02T20:06:03.683Z,8.90
2023-05-02T20:08:33.174Z,8.90
2023-05-02T20:11:01.386Z,8.80
2023-05-02T20:13:32.767Z,8.80
2023-05-02T20:16:00.673Z,8.80
2023-05-02T20:18:35.245Z,8.80
2023-05-02T20:21:04.906Z,8.80
2023-05-02T20:23:33.200Z,8.80
2023-05-02T20:26:01.496Z,8.80
2023-05-02T20:28:29.247Z,8.70
2023-05-02T20:30:57.083Z,8.70
2023-05-02T20:33:37.109Z,8.70
2023-05-02T20:36:15.154Z,8.60
2023-05-02T20:38:44.881Z,8.60
2023-05-02T20:41:14.300Z,8.50
2023-05-02T20:43:45.161Z,8.50
2023-05-02T20:46:21.145Z,8.50
2023-05-02T20:48:51.417Z,8.40
2023-05-02T20:51:29.803Z,8.40
2023-05-02T20:53:59.194Z,8.30
2023-05-02T20:56:34.256Z,8.30
2023-05-02T20:59:02.306Z,8.30
2023-05-02T21:01:31.365Z,8.30
2023-05-02T21:04:00.512Z,8.20
2023-05-02T21:06:31.559Z,8.20
2023-05-02T21:09:02.067Z,8.20
2023-05-02T21:11:30.487Z,8.10
2023-05-02T21:13:58.730Z,8.10
2023-05-02T21:16:26.826Z,8.10
2023-05-02T21:18:56.863Z,8.10
2023-05-02T21:21:26.205Z,8.10
2023-05-02T21:23:55.347Z,8.00
2023-05-02T21:26:23.803Z,7.90
2023-05-02T21:28:51.768Z,7.90
2023-05-02T21:31:20.099Z,7.80
2023-05-02T21:33:47.825Z,7.80
2023-05-02T21:36:16.817Z,7.70
2023-05-02T21:38:50.336Z,7.70
2023-05-02T21:41:21.122Z,7.70
2023-05-02T21:43:48.813Z,7.60
2023-05-02T21:46:16.612Z,7.60
2023-05-02T21:48:46.628Z,7.60
2023-05-02T21:51:16.708Z,7.60
2023-05-02T21:53:44.388Z,7.60
2023-05-02T21:56:12.325Z,7.50
2023-05-02T21:58:41.418Z,7.60
2023-05-02T22:01:12.641Z,7.60
2023-05-02T22:03:41.000Z,7.60
2023-05-02T22:06:09.760Z,7.60
2023-05-02T22:08:37.774Z,7.60
2023-05-02T22:11:09.504Z,7.50
2023-05-02T22:13:37.799Z,7.60
2023-05-02T22:16:08.288Z,7.50
2023-05-02T22:18:36.934Z,7.50
2023-05-02T22:21:04.791Z,7.50
2023-05-02T22:23:32.536Z,7.40
2023-05-02T22:26:01.345Z,7.50
2023-05-02T22:28:29.053Z,7.40
2023-05-02T22:30:57.350Z,7.40
2023-05-02T22:33:26.765Z,7.40
2023-05-02T22:35:54.452Z,7.40
2023-05-02T22:38:22.977Z,7.30
2023-05-02T22:40:51.010Z,7.40
2023-05-02T22:43:18.841Z,7.40
2023-05-02T22:45:46.523Z,7.40
2023-05-02T22:48:14.225Z,7.40
2023-05-02T22:50:44.083Z,7.30
2023-05-02T22:53:12.193Z,7.30
2023-05-02T22:55:42.224Z,7.30
2023-05-02T22:58:11.473Z,7.30
2023-05-02T23:00:40.762Z,7.30
2023-05-02T23:03:08.868Z,7.20
2023-05-02T23:05:37.052Z,7.20
2023-05-02T23:08:06.251Z,7.20
2023-05-02T23:10:34.319Z,7.10
2023-05-02T23:13:02.064Z,7.10
2023-05-02T23:15:30.555Z,7.10
2023-05-02T23:17:58.414Z,7.10
2023-05-02T23:20:27.101Z,7.00
2023-05-02T23:22:56.580Z,7.00
2023-05-02T23:25:28.422Z,7.00
2023-05-02T23:27:56.259Z,7.00
2023-05-02T23:30:26.221Z,7.00
2023-05-02T23:32:54.855Z,7.00
2023-05-02T23:35:23.308Z,6.90
2023-05-02T23:37:51.387Z,6.90
2023-05-02T23:40:20.030Z,6.90
2023-05-02T23:42:51.715Z,6.90
2023-05-02T23:45:20.927Z,6.90
2023-05-02T23:47:48.762Z,6.90
2023-05-02T23:50:17.124Z,6.90
2023-05-02T23:52:45.222Z,6.90
2023-05-02T23:55:14.509Z,6.80
2023-05-02T23:57:42.544Z,6.80
